sensor_id;sensor_type;location;lat;lon;timestamp;P1;durP1;ratioP1;P2;durP2;ratioP2
25153;SDS011;47555;51.038;6.280;2022-12-24T00:01:07;16.52;;;3.95;;
25153;SDS011;47555;51.038;6.280;2022-12-24T00:03:33;20.58;;;3.42;;
25153;SDS011;47555;51.038;6.280;2022-12-24T00:06:04;20.98;;;3.65;;
25153;SDS011;47555;51.038;6.280;2022-12-24T00:08:30;22.67;;;3.65;;
25153;SDS011;47555;51.038;6.280;2022-12-24T00:10:56;20.45;;;3.65;;
25153;SDS011;47555;51.038;6.280;2022-12-24T00:13:21;18.50;;;3.10;;
25153;SDS011;47555;51.038;6.280;2022-12-24T00:15:48;20.58;;;3.10;;
25153;SDS011;47555;51.038;6.280;2022-12-24T00:18:13;19.25;;;3.30;;
25153;SDS011;47555;51.038;6.280;2022-12-24T00:20:39;17.55;;;3.75;;
25153;SDS011;47555;51.038;6.280;2022-12-24T00:23:05;20.67;;;3.17;;
25153;SDS011;47555;51.038;6.280;2022-12-24T00:25:30;13.70;;;3.00;;
25153;SDS011;47555;51.038;6.280;2022-12-24T00:27:56;14.27;;;2.75;;
25153;SDS011;47555;51.038;6.280;2022-12-24T00:30:21;19.30;;;3.78;;
25153;SDS011;47555;51.038;6.280;2022-12-24T00:32:47;18.25;;;3.20;;
25153;SDS011;47555;51.038;6.280;2022-12-24T00:35:12;17.27;;;3.05;;
25153;SDS011;47555;51.038;6.280;2022-12-24T00:37:38;19.27;;;5.22;;
25153;SDS011;47555;51.038;6.280;2022-12-24T00:40:03;20.27;;;2.78;;
25153;SDS011;47555;51.038;6.280;2022-12-24T00:42:29;17.60;;;3.25;;
25153;SDS011;47555;51.038;6.280;2022-12-24T00:44:55;18.63;;;3.10;;
25153;SDS011;47555;51.038;6.280;2022-12-24T00:47:20;21.10;;;3.33;;
25153;SDS011;47555;51.038;6.280;2022-12-24T00:49:46;22.58;;;3.65;;
25153;SDS011;47555;51.038;6.280;2022-12-24T00:52:11;13.70;;;2.83;;
25153;SDS011;47555;51.038;6.280;2022-12-24T00:54:37;20.33;;;3.55;;
25153;SDS011;47555;51.038;6.280;2022-12-24T00:57:02;23.00;;;3.97;;
25153;SDS011;47555;51.038;6.280;2022-12-24T00:59:28;14.40;;;3.33;;
25153;SDS011;47555;51.038;6.280;2022-12-24T01:01:53;13.77;;;3.00;;
25153;SDS011;47555;51.038;6.280;2022-12-24T01:04:19;17.45;;;3.95;;
25153;SDS011;47555;51.038;6.280;2022-12-24T01:07:03;20.77;;;3.85;;
25153;SDS011;47555;51.038;6.280;2022-12-24T01:09:29;17.55;;;2.90;;
25153;SDS011;47555;51.038;6.280;2022-12-24T01:11:54;16.55;;;2.83;;
25153;SDS011;47555;51.038;6.280;2022-12-24T01:14:20;14.85;;;3.83;;
25153;SDS011;47555;51.038;6.280;2022-12-24T01:16:45;19.55;;;3.15;;
25153;SDS011;47555;51.038;6.280;2022-12-24T01:19:11;20.58;;;3.33;;
25153;SDS011;47555;51.038;6.280;2022-12-24T01:21:36;17.40;;;3.28;;
25153;SDS011;47555;51.038;6.280;2022-12-24T01:24:02;18.50;;;3.28;;
25153;SDS011;47555;51.038;6.280;2022-12-24T01:26:28;18.98;;;3.45;;
25153;SDS011;47555;51.038;6.280;2022-12-24T01:28:53;19.40;;;3.13;;
25153;SDS011;47555;51.038;6.280;2022-12-24T01:31:19;15.18;;;3.47;;
25153;SDS011;47555;51.038;6.280;2022-12-24T01:33:45;15.50;;;3.35;;
25153;SDS011;47555;51.038;6.280;2022-12-24T01:36:14;22.98;;;3.88;;
25153;SDS011;47555;51.038;6.280;2022-12-24T01:38:39;16.40;;;3.75;;
25153;SDS011;47555;51.038;6.280;2022-12-24T01:41:05;11.35;;;2.35;;
25153;SDS011;47555;51.038;6.280;2022-12-24T01:43:50;16.25;;;2.97;;
25153;SDS011;47555;51.038;6.280;2022-12-24T01:46:17;15.95;;;3.28;;
25153;SDS011;47555;51.038;6.280;2022-12-24T01:48:46;16.95;;;3.35;;
25153;SDS011;47555;51.038;6.280;2022-12-24T01:51:23;18.60;;;3.00;;
25153;SDS011;47555;51.038;6.280;2022-12-24T01:54:03;19.33;;;3.30;;
25153;SDS011;47555;51.038;6.280;2022-12-24T01:56:36;14.45;;;2.90;;
25153;SDS011;47555;51.038;6.280;2022-12-24T01:59:06;25.38;;;3.47;;
25153;SDS011;47555;51.038;6.280;2022-12-24T02:01:35;19.15;;;2.88;;
25153;SDS011;47555;51.038;6.280;2022-12-24T02:04:02;19.17;;;2.85;;
25153;SDS011;47555;51.038;6.280;2022-12-24T02:06:40;14.98;;;2.17;;
25153;SDS011;47555;51.038;6.280;2022-12-24T02:09:05;21.38;;;2.95;;
25153;SDS011;47555;51.038;6.280;2022-12-24T02:11:31;14.15;;;4.43;;
25153;SDS011;47555;51.038;6.280;2022-12-24T02:14:01;20.38;;;3.58;;
25153;SDS011;47555;51.038;6.280;2022-12-24T02:22:16;12.40;;;2.30;;
25153;SDS011;47555;51.038;6.280;2022-12-24T02:28:14;21.35;;;3.85;;
25153;SDS011;47555;51.038;6.280;2022-12-24T02:31:12;20.30;;;3.40;;
25153;SDS011;47555;51.038;6.280;2022-12-24T02:34:13;18.98;;;3.40;;
25153;SDS011;47555;51.038;6.280;2022-12-24T02:36:51;13.50;;;3.10;;
25153;SDS011;47555;51.038;6.280;2022-12-24T02:39:26;13.48;;;2.45;;
25153;SDS011;47555;51.038;6.280;2022-12-24T02:42:00;14.45;;;3.03;;
25153;SDS011;47555;51.038;6.280;2022-12-24T02:44:54;14.63;;;3.13;;
25153;SDS011;47555;51.038;6.280;2022-12-24T02:47:20;13.18;;;2.92;;
25153;SDS011;47555;51.038;6.280;2022-12-24T02:49:48;13.73;;;2.60;;
25153;SDS011;47555;51.038;6.280;2022-12-24T02:58:09;10.93;;;3.47;;
25153;SDS011;47555;51.038;6.280;2022-12-24T03:01:01;16.63;;;3.08;;
25153;SDS011;47555;51.038;6.280;2022-12-24T03:09:12;11.55;;;3.53;;
25153;SDS011;47555;51.038;6.280;2022-12-24T03:12:02;11.90;;;2.90;;
25153;SDS011;47555;51.038;6.280;2022-12-24T03:14:34;12.23;;;3.13;;
25153;SDS011;47555;51.038;6.280;2022-12-24T03:17:00;14.40;;;3.00;;
25153;SDS011;47555;51.038;6.280;2022-12-24T03:19:27;14.88;;;3.20;;
25153;SDS011;47555;51.038;6.280;2022-12-24T03:21:55;16.35;;;3.25;;
25153;SDS011;47555;51.038;6.280;2022-12-24T03:24:23;13.57;;;3.00;;
25153;SDS011;47555;51.038;6.280;2022-12-24T03:26:49;7.93;;;2.47;;
25153;SDS011;47555;51.038;6.280;2022-12-24T03:29:15;7.28;;;1.90;;
25153;SDS011;47555;51.038;6.280;2022-12-24T03:31:42;9.05;;;2.33;;
25153;SDS011;47555;51.038;6.280;2022-12-24T03:34:09;10.20;;;3.03;;
25153;SDS011;47555;51.038;6.280;2022-12-24T03:36:36;12.95;;;2.97;;
25153;SDS011;47555;51.038;6.280;2022-12-24T03:39:02;10.52;;;2.55;;
25153;SDS011;47555;51.038;6.280;2022-12-24T03:41:28;6.53;;;2.13;;
25153;SDS011;47555;51.038;6.280;2022-12-24T03:43:53;12.48;;;2.45;;
25153;SDS011;47555;51.038;6.280;2022-12-24T03:46:19;12.77;;;1.90;;
25153;SDS011;47555;51.038;6.280;2022-12-24T03:48:44;8.70;;;1.35;;
25153;SDS011;47555;51.038;6.280;2022-12-24T03:51:15;12.63;;;1.80;;
25153;SDS011;47555;51.038;6.280;2022-12-24T03:53:42;9.52;;;1.60;;
25153;SDS011;47555;51.038;6.280;2022-12-24T03:56:08;10.90;;;1.90;;
25153;SDS011;47555;51.038;6.280;2022-12-24T03:58:33;7.80;;;2.10;;
25153;SDS011;47555;51.038;6.280;2022-12-24T04:00:59;9.18;;;2.00;;
25153;SDS011;47555;51.038;6.280;2022-12-24T04:03:24;7.63;;;2.13;;
25153;SDS011;47555;51.038;6.280;2022-12-24T04:06:00;8.57;;;2.42;;
25153;SDS011;47555;51.038;6.280;2022-12-24T04:08:33;6.97;;;1.70;;
25153;SDS011;47555;51.038;6.280;2022-12-24T04:10:59;9.77;;;2.03;;
25153;SDS011;47555;51.038;6.280;2022-12-24T04:13:25;4.70;;;1.65;;
25153;SDS011;47555;51.038;6.280;2022-12-24T04:16:04;8.75;;;1.95;;
25153;SDS011;47555;51.038;6.280;2022-12-24T04:18:35;10.32;;;2.42;;
25153;SDS011;47555;51.038;6.280;2022-12-24T04:21:01;12.85;;;2.67;;
25153;SDS011;47555;51.038;6.280;2022-12-24T04:23:29;14.43;;;2.53;;
25153;SDS011;47555;51.038;6.280;2022-12-24T04:25:57;6.35;;;2.03;;
25153;SDS011;47555;51.038;6.280;2022-12-24T04:28:23;11.02;;;2.40;;
25153;SDS011;47555;51.038;6.280;2022-12-24T04:30:49;8.93;;;2.38;;
25153;SDS011;47555;51.038;6.280;2022-12-24T04:33:14;8.43;;;2.00;;
25153;SDS011;47555;51.038;6.280;2022-12-24T04:35:40;10.48;;;3.28;;
25153;SDS011;47555;51.038;6.280;2022-12-24T04:38:07;10.82;;;2.70;;
25153;SDS011;47555;51.038;6.280;2022-12-24T04:40:33;11.70;;;2.88;;
25153;SDS011;47555;51.038;6.280;2022-12-24T04:42:59;9.88;;;2.90;;
25153;SDS011;47555;51.038;6.280;2022-12-24T04:45:25;11.10;;;2.63;;
25153;SDS011;47555;51.038;6.280;2022-12-24T04:47:50;8.82;;;2.65;;
25153;SDS011;47555;51.038;6.280;2022-12-24T04:50:16;13.35;;;3.28;;
25153;SDS011;47555;51.038;6.280;2022-12-24T04:52:42;12.15;;;3.03;;
25153;SDS011;47555;51.038;6.280;2022-12-24T04:55:07;11.57;;;2.53;;
25153;SDS011;47555;51.038;6.280;2022-12-24T04:57:33;13.05;;;3.17;;
25153;SDS011;47555;51.038;6.280;2022-12-24T04:59:59;16.75;;;3.53;;
25153;SDS011;47555;51.038;6.280;2022-12-24T05:02:26;17.88;;;3.67;;
25153;SDS011;47555;51.038;6.280;2022-12-24T05:04:51;9.27;;;3.08;;
25153;SDS011;47555;51.038;6.280;2022-12-24T05:07:17;17.05;;;3.78;;
25153;SDS011;47555;51.038;6.280;2022-12-24T05:09:42;12.30;;;3.13;;
25153;SDS011;47555;51.038;6.280;2022-12-24T05:12:08;14.23;;;3.72;;
25153;SDS011;47555;51.038;6.280;2022-12-24T05:14:33;17.33;;;3.72;;
25153;SDS011;47555;51.038;6.280;2022-12-24T05:16:59;12.18;;;3.97;;
25153;SDS011;47555;51.038;6.280;2022-12-24T05:19:24;12.57;;;3.75;;
25153;SDS011;47555;51.038;6.280;2022-12-24T05:21:50;16.48;;;3.75;;
25153;SDS011;47555;51.038;6.280;2022-12-24T05:24:35;9.82;;;3.70;;
25153;SDS011;47555;51.038;6.280;2022-12-24T05:27:19;15.98;;;4.53;;
25153;SDS011;47555;51.038;6.280;2022-12-24T05:29:45;14.07;;;3.78;;
25153;SDS011;47555;51.038;6.280;2022-12-24T05:32:11;18.35;;;4.07;;
25153;SDS011;47555;51.038;6.280;2022-12-24T05:34:36;21.65;;;3.88;;
25153;SDS011;47555;51.038;6.280;2022-12-24T05:37:02;18.92;;;3.92;;
25153;SDS011;47555;51.038;6.280;2022-12-24T05:39:27;20.55;;;5.43;;
25153;SDS011;47555;51.038;6.280;2022-12-24T05:41:53;14.98;;;4.15;;
25153;SDS011;47555;51.038;6.280;2022-12-24T05:44:18;15.95;;;5.00;;
25153;SDS011;47555;51.038;6.280;2022-12-24T05:46:44;13.43;;;4.25;;
25153;SDS011;47555;51.038;6.280;2022-12-24T05:49:09;14.05;;;3.33;;
25153;SDS011;47555;51.038;6.280;2022-12-24T05:51:35;22.83;;;3.75;;
25153;SDS011;47555;51.038;6.280;2022-12-24T05:54:01;17.65;;;4.75;;
25153;SDS011;47555;51.038;6.280;2022-12-24T05:56:26;18.38;;;4.30;;
25153;SDS011;47555;51.038;6.280;2022-12-24T05:58:52;19.02;;;4.13;;
25153;SDS011;47555;51.038;6.280;2022-12-24T06:01:18;18.02;;;4.20;;
25153;SDS011;47555;51.038;6.280;2022-12-24T06:03:45;24.02;;;4.20;;
25153;SDS011;47555;51.038;6.280;2022-12-24T06:06:14;15.45;;;3.90;;
25153;SDS011;47555;51.038;6.280;2022-12-24T06:08:44;19.42;;;4.18;;
25153;SDS011;47555;51.038;6.280;2022-12-24T06:11:11;22.55;;;5.68;;
25153;SDS011;47555;51.038;6.280;2022-12-24T06:13:40;24.13;;;5.47;;
25153;SDS011;47555;51.038;6.280;2022-12-24T06:16:06;18.25;;;3.75;;
25153;SDS011;47555;51.038;6.280;2022-12-24T06:18:34;17.10;;;5.88;;
25153;SDS011;47555;51.038;6.280;2022-12-24T06:21:00;18.25;;;4.30;;
25153;SDS011;47555;51.038;6.280;2022-12-24T06:23:28;19.35;;;4.90;;
25153;SDS011;47555;51.038;6.280;2022-12-24T06:25:55;21.75;;;4.90;;
25153;SDS011;47555;51.038;6.280;2022-12-24T06:28:22;20.48;;;3.88;;
25153;SDS011;47555;51.038;6.280;2022-12-24T06:30:49;20.77;;;5.47;;
25153;SDS011;47555;51.038;6.280;2022-12-24T06:33:15;20.13;;;4.30;;
25153;SDS011;47555;51.038;6.280;2022-12-24T06:35:43;17.75;;;4.10;;
25153;SDS011;47555;51.038;6.280;2022-12-24T06:38:09;20.33;;;3.95;;
25153;SDS011;47555;51.038;6.280;2022-12-24T06:40:36;17.40;;;3.30;;
25153;SDS011;47555;51.038;6.280;2022-12-24T06:43:02;12.05;;;3.10;;
25153;SDS011;47555;51.038;6.280;2022-12-24T06:45:28;23.60;;;3.35;;
25153;SDS011;47555;51.038;6.280;2022-12-24T06:47:53;19.55;;;3.90;;
25153;SDS011;47555;51.038;6.280;2022-12-24T06:50:19;13.80;;;3.38;;
25153;SDS011;47555;51.038;6.280;2022-12-24T06:52:44;19.85;;;3.70;;
25153;SDS011;47555;51.038;6.280;2022-12-24T06:55:10;23.42;;;3.80;;
25153;SDS011;47555;51.038;6.280;2022-12-24T06:57:35;19.65;;;3.70;;
25153;SDS011;47555;51.038;6.280;2022-12-24T07:00:01;19.70;;;3.55;;
25153;SDS011;47555;51.038;6.280;2022-12-24T07:02:26;23.77;;;4.57;;
25153;SDS011;47555;51.038;6.280;2022-12-24T07:04:52;14.00;;;3.92;;
25153;SDS011;47555;51.038;6.280;2022-12-24T07:07:17;18.15;;;3.80;;
25153;SDS011;47555;51.038;6.280;2022-12-24T07:09:43;13.80;;;2.85;;
25153;SDS011;47555;51.038;6.280;2022-12-24T07:12:08;14.57;;;3.15;;
25153;SDS011;47555;51.038;6.280;2022-12-24T07:14:34;17.20;;;4.50;;
25153;SDS011;47555;51.038;6.280;2022-12-24T07:16:59;16.13;;;3.33;;
25153;SDS011;47555;51.038;6.280;2022-12-24T07:19:25;14.15;;;3.40;;
25153;SDS011;47555;51.038;6.280;2022-12-24T07:21:50;16.15;;;4.10;;
25153;SDS011;47555;51.038;6.280;2022-12-24T07:24:16;18.02;;;3.60;;
25153;SDS011;47555;51.038;6.280;2022-12-24T07:26:41;15.73;;;3.25;;
25153;SDS011;47555;51.038;6.280;2022-12-24T07:29:07;16.85;;;3.53;;
25153;SDS011;47555;51.038;6.280;2022-12-24T07:31:32;20.52;;;3.83;;
25153;SDS011;47555;51.038;6.280;2022-12-24T07:33:58;20.17;;;3.90;;
25153;SDS011;47555;51.038;6.280;2022-12-24T07:36:23;10.50;;;3.03;;
25153;SDS011;47555;51.038;6.280;2022-12-24T07:38:49;22.15;;;3.50;;
25153;SDS011;47555;51.038;6.280;2022-12-24T07:41:15;30.95;;;5.80;;
25153;SDS011;47555;51.038;6.280;2022-12-24T07:43:40;20.02;;;3.97;;
25153;SDS011;47555;51.038;6.280;2022-12-24T07:46:06;22.15;;;4.85;;
25153;SDS011;47555;51.038;6.280;2022-12-24T07:48:32;15.30;;;3.70;;
25153;SDS011;47555;51.038;6.280;2022-12-24T07:50:58;14.05;;;3.83;;
25153;SDS011;47555;51.038;6.280;2022-12-24T07:53:24;19.33;;;3.67;;
25153;SDS011;47555;51.038;6.280;2022-12-24T07:55:51;13.75;;;4.10;;
25153;SDS011;47555;51.038;6.280;2022-12-24T07:58:17;21.00;;;3.53;;
25153;SDS011;47555;51.038;6.280;2022-12-24T08:00:43;22.73;;;4.00;;
25153;SDS011;47555;51.038;6.280;2022-12-24T08:03:13;18.42;;;3.40;;
25153;SDS011;47555;51.038;6.280;2022-12-24T08:05:44;22.85;;;3.97;;
25153;SDS011;47555;51.038;6.280;2022-12-24T08:08:10;23.05;;;3.58;;
25153;SDS011;47555;51.038;6.280;2022-12-24T08:10:37;16.73;;;3.45;;
25153;SDS011;47555;51.038;6.280;2022-12-24T08:13:04;13.32;;;3.47;;
25153;SDS011;47555;51.038;6.280;2022-12-24T08:15:29;21.88;;;4.05;;
25153;SDS011;47555;51.038;6.280;2022-12-24T08:17:55;22.10;;;3.55;;
25153;SDS011;47555;51.038;6.280;2022-12-24T08:20:20;11.27;;;3.58;;
25153;SDS011;47555;51.038;6.280;2022-12-24T08:22:46;14.77;;;3.88;;
25153;SDS011;47555;51.038;6.280;2022-12-24T08:25:11;16.20;;;3.42;;
25153;SDS011;47555;51.038;6.280;2022-12-24T08:27:37;17.83;;;4.78;;
25153;SDS011;47555;51.038;6.280;2022-12-24T08:30:03;16.95;;;4.00;;
25153;SDS011;47555;51.038;6.280;2022-12-24T08:32:29;14.90;;;4.28;;
25153;SDS011;47555;51.038;6.280;2022-12-24T08:34:54;17.45;;;3.28;;
25153;SDS011;47555;51.038;6.280;2022-12-24T08:37:20;18.67;;;4.78;;
25153;SDS011;47555;51.038;6.280;2022-12-24T08:39:45;21.85;;;6.68;;
25153;SDS011;47555;51.038;6.280;2022-12-24T08:42:11;20.77;;;5.40;;
25153;SDS011;47555;51.038;6.280;2022-12-24T08:44:36;13.23;;;3.60;;
25153;SDS011;47555;51.038;6.280;2022-12-24T08:47:02;21.20;;;4.30;;
25153;SDS011;47555;51.038;6.280;2022-12-24T08:49:27;15.68;;;4.15;;
25153;SDS011;47555;51.038;6.280;2022-12-24T08:51:53;18.02;;;4.53;;
25153;SDS011;47555;51.038;6.280;2022-12-24T08:54:18;25.92;;;4.28;;
25153;SDS011;47555;51.038;6.280;2022-12-24T08:56:44;14.65;;;3.13;;
25153;SDS011;47555;51.038;6.280;2022-12-24T08:59:10;21.92;;;4.97;;
25153;SDS011;47555;51.038;6.280;2022-12-24T09:01:36;17.88;;;4.00;;
25153;SDS011;47555;51.038;6.280;2022-12-24T09:04:02;25.52;;;4.82;;
25153;SDS011;47555;51.038;6.280;2022-12-24T09:06:28;18.77;;;4.00;;
25153;SDS011;47555;51.038;6.280;2022-12-24T09:08:54;20.98;;;3.78;;
25153;SDS011;47555;51.038;6.280;2022-12-24T09:11:19;17.25;;;4.53;;
25153;SDS011;47555;51.038;6.280;2022-12-24T09:13:46;15.85;;;4.00;;
25153;SDS011;47555;51.038;6.280;2022-12-24T09:16:12;28.58;;;5.65;;
25153;SDS011;47555;51.038;6.280;2022-12-24T09:18:37;18.25;;;4.28;;
25153;SDS011;47555;51.038;6.280;2022-12-24T09:21:04;16.58;;;3.70;;
25153;SDS011;47555;51.038;6.280;2022-12-24T09:23:40;17.77;;;4.28;;
25153;SDS011;47555;51.038;6.280;2022-12-24T09:26:14;16.92;;;4.25;;
25153;SDS011;47555;51.038;6.280;2022-12-24T09:28:44;11.93;;;3.60;;
25153;SDS011;47555;51.038;6.280;2022-12-24T09:31:10;15.80;;;4.20;;
25153;SDS011;47555;51.038;6.280;2022-12-24T09:33:37;19.85;;;4.45;;
25153;SDS011;47555;51.038;6.280;2022-12-24T09:36:04;21.00;;;3.88;;
25153;SDS011;47555;51.038;6.280;2022-12-24T09:38:30;27.75;;;4.80;;
25153;SDS011;47555;51.038;6.280;2022-12-24T09:40:57;23.92;;;4.70;;
25153;SDS011;47555;51.038;6.280;2022-12-24T09:43:28;24.63;;;5.30;;
25153;SDS011;47555;51.038;6.280;2022-12-24T09:48:38;15.45;;;3.55;;
25153;SDS011;47555;51.038;6.280;2022-12-24T09:59:15;25.10;;;5.03;;
25153;SDS011;47555;51.038;6.280;2022-12-24T10:01:48;24.40;;;3.70;;
25153;SDS011;47555;51.038;6.280;2022-12-24T10:04:17;15.40;;;3.58;;
25153;SDS011;47555;51.038;6.280;2022-12-24T10:09:42;17.52;;;3.50;;
25153;SDS011;47555;51.038;6.280;2022-12-24T10:15:02;12.80;;;3.85;;
25153;SDS011;47555;51.038;6.280;2022-12-24T10:17:53;19.10;;;4.63;;
25153;SDS011;47555;51.038;6.280;2022-12-24T10:20:59;27.00;;;4.78;;
25153;SDS011;47555;51.038;6.280;2022-12-24T10:26:25;24.40;;;4.47;;
25153;SDS011;47555;51.038;6.280;2022-12-24T10:28:55;20.88;;;5.85;;
25153;SDS011;47555;51.038;6.280;2022-12-24T10:31:31;18.60;;;4.13;;
25153;SDS011;47555;51.038;6.280;2022-12-24T10:34:04;14.52;;;3.35;;
25153;SDS011;47555;51.038;6.280;2022-12-24T10:36:37;17.40;;;4.63;;
25153;SDS011;47555;51.038;6.280;2022-12-24T10:39:03;19.65;;;4.10;;
25153;SDS011;47555;51.038;6.280;2022-12-24T10:41:28;24.38;;;4.45;;
25153;SDS011;47555;51.038;6.280;2022-12-24T10:43:55;15.05;;;3.92;;
25153;SDS011;47555;51.038;6.280;2022-12-24T10:46:26;24.35;;;5.22;;
25153;SDS011;47555;51.038;6.280;2022-12-24T10:49:00;18.33;;;3.83;;
25153;SDS011;47555;51.038;6.280;2022-12-24T10:54:16;19.63;;;4.15;;
25153;SDS011;47555;51.038;6.280;2022-12-24T10:56:47;15.32;;;3.25;;
25153;SDS011;47555;51.038;6.280;2022-12-24T10:59:28;18.25;;;5.28;;
25153;SDS011;47555;51.038;6.280;2022-12-24T11:02:03;17.70;;;4.05;;
25153;SDS011;47555;51.038;6.280;2022-12-24T11:05:06;24.45;;;6.13;;
25153;SDS011;47555;51.038;6.280;2022-12-24T11:08:01;15.85;;;3.67;;
25153;SDS011;47555;51.038;6.280;2022-12-24T11:10:29;17.50;;;4.00;;
25153;SDS011;47555;51.038;6.280;2022-12-24T11:12:57;12.85;;;3.22;;
25153;SDS011;47555;51.038;6.280;2022-12-24T11:15:23;14.45;;;3.25;;
25153;SDS011;47555;51.038;6.280;2022-12-24T11:17:55;16.90;;;3.35;;
25153;SDS011;47555;51.038;6.280;2022-12-24T11:20:27;18.80;;;3.83;;
25153;SDS011;47555;51.038;6.280;2022-12-24T11:22:54;17.00;;;4.53;;
25153;SDS011;47555;51.038;6.280;2022-12-24T11:25:24;16.80;;;4.72;;
25153;SDS011;47555;51.038;6.280;2022-12-24T11:33:26;17.27;;;3.17;;
25153;SDS011;47555;51.038;6.280;2022-12-24T11:35:53;21.33;;;3.92;;
25153;SDS011;47555;51.038;6.280;2022-12-24T11:38:24;23.85;;;3.80;;
25153;SDS011;47555;51.038;6.280;2022-12-24T11:41:02;22.85;;;4.10;;
25153;SDS011;47555;51.038;6.280;2022-12-24T11:43:44;15.88;;;4.22;;
25153;SDS011;47555;51.038;6.280;2022-12-24T11:49:05;15.90;;;3.40;;
25153;SDS011;47555;51.038;6.280;2022-12-24T11:51:39;17.70;;;3.80;;
25153;SDS011;47555;51.038;6.280;2022-12-24T11:54:25;18.55;;;3.80;;
25153;SDS011;47555;51.038;6.280;2022-12-24T11:56:56;14.73;;;3.78;;
25153;SDS011;47555;51.038;6.280;2022-12-24T11:59:39;23.98;;;3.97;;
25153;SDS011;47555;51.038;6.280;2022-12-24T12:04:58;17.83;;;3.63;;
25153;SDS011;47555;51.038;6.280;2022-12-24T12:07:29;23.23;;;4.95;;
25153;SDS011;47555;51.038;6.280;2022-12-24T12:10:05;14.70;;;3.60;;
25153;SDS011;47555;51.038;6.280;2022-12-24T12:12:45;11.63;;;3.10;;
25153;SDS011;47555;51.038;6.280;2022-12-24T12:15:36;12.65;;;3.78;;
25153;SDS011;47555;51.038;6.280;2022-12-24T12:18:23;19.95;;;3.58;;
25153;SDS011;47555;51.038;6.280;2022-12-24T12:21:03;15.45;;;3.05;;
25153;SDS011;47555;51.038;6.280;2022-12-24T12:23:33;22.23;;;3.70;;
25153;SDS011;47555;51.038;6.280;2022-12-24T12:29:03;12.48;;;2.92;;
25153;SDS011;47555;51.038;6.280;2022-12-24T12:31:55;12.55;;;3.38;;
25153;SDS011;47555;51.038;6.280;2022-12-24T12:34:28;12.25;;;3.53;;
25153;SDS011;47555;51.038;6.280;2022-12-24T12:37:07;14.98;;;3.30;;
25153;SDS011;47555;51.038;6.280;2022-12-24T12:39:35;18.10;;;3.50;;
25153;SDS011;47555;51.038;6.280;2022-12-24T12:45:02;15.60;;;4.93;;
25153;SDS011;47555;51.038;6.280;2022-12-24T12:50:30;24.85;;;4.07;;
25153;SDS011;47555;51.038;6.280;2022-12-24T13:01:13;13.07;;;3.15;;
25153;SDS011;47555;51.038;6.280;2022-12-24T13:03:43;16.98;;;2.90;;
25153;SDS011;47555;51.038;6.280;2022-12-24T13:14:44;13.00;;;3.00;;
25153;SDS011;47555;51.038;6.280;2022-12-24T13:22:38;14.10;;;2.63;;
25153;SDS011;47555;51.038;6.280;2022-12-24T13:25:04;16.15;;;3.30;;
25153;SDS011;47555;51.038;6.280;2022-12-24T13:27:30;12.30;;;3.10;;
25153;SDS011;47555;51.038;6.280;2022-12-24T13:29:58;18.48;;;4.00;;
25153;SDS011;47555;51.038;6.280;2022-12-24T13:32:51;17.85;;;3.67;;
25153;SDS011;47555;51.038;6.280;2022-12-24T13:37:44;14.73;;;4.10;;
25153;SDS011;47555;51.038;6.280;2022-12-24T13:47:55;19.23;;;3.35;;
25153;SDS011;47555;51.038;6.280;2022-12-24T13:50:39;15.15;;;3.13;;
25153;SDS011;47555;51.038;6.280;2022-12-24T13:53:21;17.75;;;3.83;;
25153;SDS011;47555;51.038;6.280;2022-12-24T13:56:02;15.50;;;3.50;;
25153;SDS011;47555;51.038;6.280;2022-12-24T13:58:32;16.30;;;3.35;;
25153;SDS011;47555;51.038;6.280;2022-12-24T14:01:02;11.90;;;3.45;;
25153;SDS011;47555;51.038;6.280;2022-12-24T14:04:04;12.88;;;3.15;;
25153;SDS011;47555;51.038;6.280;2022-12-24T14:06:29;18.67;;;3.00;;
25153;SDS011;47555;51.038;6.280;2022-12-24T14:09:04;20.33;;;3.00;;
25153;SDS011;47555;51.038;6.280;2022-12-24T14:14:33;15.85;;;3.40;;
25153;SDS011;47555;51.038;6.280;2022-12-24T14:17:21;15.35;;;3.05;;
25153;SDS011;47555;51.038;6.280;2022-12-24T14:19:59;16.55;;;4.55;;
25153;SDS011;47555;51.038;6.280;2022-12-24T14:22:33;20.27;;;3.22;;
25153;SDS011;47555;51.038;6.280;2022-12-24T14:25:10;21.58;;;4.30;;
25153;SDS011;47555;51.038;6.280;2022-12-24T14:27:46;15.40;;;3.38;;
25153;SDS011;47555;51.038;6.280;2022-12-24T14:30:24;14.82;;;3.00;;
25153;SDS011;47555;51.038;6.280;2022-12-24T14:32:51;10.85;;;2.85;;
25153;SDS011;47555;51.038;6.280;2022-12-24T14:35:18;12.02;;;3.10;;
25153;SDS011;47555;51.038;6.280;2022-12-24T14:37:51;8.48;;;2.65;;
25153;SDS011;47555;51.038;6.280;2022-12-24T14:40:27;18.92;;;3.88;;
25153;SDS011;47555;51.038;6.280;2022-12-24T14:43:08;16.80;;;2.97;;
25153;SDS011;47555;51.038;6.280;2022-12-24T14:45:55;15.18;;;3.55;;
25153;SDS011;47555;51.038;6.280;2022-12-24T14:48:41;14.85;;;2.95;;
25153;SDS011;47555;51.038;6.280;2022-12-24T14:57:05;13.05;;;3.53;;
25153;SDS011;47555;51.038;6.280;2022-12-24T15:05:04;12.70;;;3.33;;
25153;SDS011;47555;51.038;6.280;2022-12-24T15:10:24;16.17;;;4.10;;
25153;SDS011;47555;51.038;6.280;2022-12-24T15:15:46;11.98;;;3.30;;
25153;SDS011;47555;51.038;6.280;2022-12-24T15:18:14;13.70;;;3.35;;
25153;SDS011;47555;51.038;6.280;2022-12-24T15:20:44;11.32;;;3.60;;
25153;SDS011;47555;51.038;6.280;2022-12-24T15:23:25;14.80;;;3.42;;
25153;SDS011;47555;51.038;6.280;2022-12-24T15:26:37;14.00;;;3.38;;
25153;SDS011;47555;51.038;6.280;2022-12-24T15:28:39;16.70;;;3.80;;
25153;SDS011;47555;51.038;6.280;2022-12-24T15:31:10;19.40;;;3.90;;
25153;SDS011;47555;51.038;6.280;2022-12-24T15:33:44;14.68;;;3.67;;
25153;SDS011;47555;51.038;6.280;2022-12-24T15:36:10;13.60;;;3.40;;
25153;SDS011;47555;51.038;6.280;2022-12-24T15:38:42;19.83;;;5.20;;
25153;SDS011;47555;51.038;6.280;2022-12-24T15:41:15;19.05;;;3.90;;
25153;SDS011;47555;51.038;6.280;2022-12-24T15:43:44;16.40;;;3.70;;
25153;SDS011;47555;51.038;6.280;2022-12-24T15:46:25;14.50;;;3.83;;
25153;SDS011;47555;51.038;6.280;2022-12-24T15:48:52;10.70;;;3.05;;
25153;SDS011;47555;51.038;6.280;2022-12-24T15:51:28;11.30;;;3.17;;
25153;SDS011;47555;51.038;6.280;2022-12-24T15:53:57;6.95;;;3.08;;
25153;SDS011;47555;51.038;6.280;2022-12-24T15:56:27;14.27;;;3.97;;
25153;SDS011;47555;51.038;6.280;2022-12-24T15:59:10;11.15;;;2.90;;
25153;SDS011;47555;51.038;6.280;2022-12-24T16:01:39;8.50;;;2.70;;
25153;SDS011;47555;51.038;6.280;2022-12-24T16:04:11;7.88;;;2.88;;
25153;SDS011;47555;51.038;6.280;2022-12-24T16:09:29;9.73;;;3.90;;
25153;SDS011;47555;51.038;6.280;2022-12-24T16:11:55;11.57;;;4.20;;
25153;SDS011;47555;51.038;6.280;2022-12-24T16:14:21;12.05;;;4.40;;
25153;SDS011;47555;51.038;6.280;2022-12-24T16:16:48;14.57;;;5.43;;
25153;SDS011;47555;51.038;6.280;2022-12-24T16:19:22;17.23;;;7.32;;
25153;SDS011;47555;51.038;6.280;2022-12-24T16:21:53;23.20;;;10.13;;
25153;SDS011;47555;51.038;6.280;2022-12-24T16:24:22;26.10;;;10.55;;
25153;SDS011;47555;51.038;6.280;2022-12-24T16:26:53;30.02;;;10.23;;
25153;SDS011;47555;51.038;6.280;2022-12-24T16:29:19;20.05;;;9.13;;
25153;SDS011;47555;51.038;6.280;2022-12-24T16:31:49;18.63;;;8.10;;
25153;SDS011;47555;51.038;6.280;2022-12-24T16:34:18;19.85;;;8.38;;
25153;SDS011;47555;51.038;6.280;2022-12-24T16:36:47;20.50;;;7.90;;
25153;SDS011;47555;51.038;6.280;2022-12-24T16:39:20;16.25;;;7.38;;
25153;SDS011;47555;51.038;6.280;2022-12-24T16:42:03;20.55;;;8.40;;
25153;SDS011;47555;51.038;6.280;2022-12-24T16:44:48;16.73;;;6.63;;
25153;SDS011;47555;51.038;6.280;2022-12-24T16:47:20;14.63;;;6.93;;
25153;SDS011;47555;51.038;6.280;2022-12-24T16:49:50;13.13;;;6.80;;